Merida, Venezuela
Current Conditions -  °F | °C
As of 10:00 PM on Monday 20 Oct 2014 (Local Time) from SVMD Reporting Station
Thunderstorm Thunderstorm  
Wind Chill: 63°   Ceiling: 1000
Heat Index: 63°   Visibility: 2.5mi
Dew Point: 63°   Wind: 2mph
Humidity: 100%   Direction: 110°ESE
Pressure: 30.18"   Gusts: NA
Location:  8.4°N, 71.13°W
Report Text: SVMD 210200Z 11002KT 4000 TSRA FEW010CB BKN010 17/17 Q1022
Loading
Personal Weather Stations






























Interactive Weather Map
Tropical Storm Tracking
New forecast layout! Learn more

10-Day Weather Forecast

Advertisements
Track Severe Weather on mobile